createdAt,value
2022-12-27T00:00:52.585Z,1.00
2022-12-27T00:10:54.245Z,1.07
2022-12-27T00:21:00.687Z,1.10
2022-12-27T00:31:03.263Z,1.30
2022-12-27T00:41:05.088Z,1.20
2022-12-27T00:51:08.906Z,1.47
2022-12-27T01:01:17.295Z,1.10
2022-12-27T01:11:19.220Z,1.20
2022-12-27T01:21:22.441Z,1.17
2022-12-27T01:31:28.169Z,1.30
2022-12-27T01:41:53.721Z,1.40
2022-12-27T01:51:55.403Z,1.30
2022-12-27T02:01:57.744Z,1.50
2022-12-27T02:12:02.003Z,1.10
2022-12-27T02:23:01.022Z,1.20
2022-12-27T02:33:07.740Z,1.30
2022-12-27T02:43:28.377Z,1.10
2022-12-27T02:53:48.547Z,1.30
2022-12-27T03:03:58.506Z,1.30
2022-12-27T03:14:34.142Z,1.30
2022-12-27T03:24:58.033Z,1.33
2022-12-27T03:35:07.767Z,1.00
2022-12-27T03:45:10.303Z,1.43
2022-12-27T03:55:12.484Z,1.30
2022-12-27T04:05:14.630Z,1.33
2022-12-27T04:15:35.662Z,1.27
2022-12-27T04:25:56.016Z,1.23
2022-12-27T04:36:02.762Z,1.37
2022-12-27T04:46:39.562Z,1.63
2022-12-27T04:56:41.223Z,1.10
2022-12-27T05:06:43.416Z,1.30
2022-12-27T05:16:45.122Z,1.40
2022-12-27T05:26:47.200Z,2.87
2022-12-27T05:36:49.252Z,1.47
2022-12-27T05:46:51.373Z,1.60
2022-12-27T05:56:53.051Z,1.50
2022-12-27T06:06:54.705Z,1.47
2022-12-27T06:16:56.365Z,1.27
2022-12-27T06:26:58.436Z,1.70
2022-12-27T06:37:00.498Z,1.70
2022-12-27T06:47:02.655Z,1.80
2022-12-27T06:57:04.307Z,1.70
2022-12-27T07:07:09.601Z,1.80
2022-12-27T07:17:13.769Z,2.00
2022-12-27T07:27:15.836Z,2.17
2022-12-27T07:37:18.120Z,2.13
2022-12-27T07:47:20.203Z,2.30
2022-12-27T07:57:21.822Z,2.30
2022-12-27T08:07:25.449Z,2.27
2022-12-27T08:17:28.196Z,2.03
2022-12-27T08:27:30.298Z,2.30
2022-12-27T08:40:52.234Z,2.77
2022-12-27T08:50:53.952Z,2.50
2022-12-27T09:00:56.033Z,2.87
2022-12-27T09:11:06.240Z,2.90
2022-12-27T09:21:10.943Z,3.00
2022-12-27T09:31:14.002Z,2.73
2022-12-27T09:42:44.499Z,2.40
2022-12-27T09:52:28.022Z,2.57
2022-12-27T10:06:50.203Z,2.40
2022-12-27T10:17:02.925Z,2.33
2022-12-27T10:27:12.941Z,2.17
2022-12-27T10:37:16.303Z,1.97
2022-12-27T10:47:18.293Z,2.70
2022-12-27T10:57:28.919Z,2.27
2022-12-27T11:07:33.038Z,1.90
2022-12-27T11:17:40.564Z,2.17
2022-12-27T11:27:47.055Z,1.90
2022-12-27T11:37:50.535Z,1.80
2022-12-27T11:48:20.388Z,1.90
2022-12-27T11:58:44.060Z,2.13
2022-12-27T12:09:20.824Z,1.80
2022-12-27T12:20:04.116Z,1.70
2022-12-27T12:30:15.015Z,1.80
2022-12-27T12:40:40.715Z,1.70
2022-12-27T12:51:10.088Z,1.47
2022-12-27T13:01:27.305Z,1.77
2022-12-27T13:12:02.130Z,2.10
2022-12-27T13:22:07.325Z,2.00
2022-12-27T13:32:41.970Z,1.93
2022-12-27T13:43:05.833Z,1.73
2022-12-27T13:53:29.320Z,2.27
2022-12-27T14:03:48.552Z,2.30
2022-12-27T14:13:51.604Z,1.80
2022-12-27T14:24:11.193Z,1.83
2022-12-27T14:34:54.553Z,2.23
2022-12-27T14:44:59.592Z,1.93
2022-12-27T14:55:38.311Z,2.70
2022-12-27T15:05:51.446Z,2.27
2022-12-27T15:16:15.798Z,2.17
2022-12-27T15:26:20.421Z,2.50
2022-12-27T15:36:40.862Z,2.93
2022-12-27T15:47:01.050Z,2.70
2022-12-27T15:57:31.841Z,2.40
2022-12-27T16:07:36.705Z,2.30
2022-12-27T16:17:56.763Z,1.90
2022-12-27T16:28:15.941Z,2.50
2022-12-27T16:38:22.451Z,2.00
2022-12-27T16:48:50.995Z,2.13
2022-12-27T16:58:52.815Z,2.10
2022-12-27T17:09:09.484Z,3.13
2022-12-27T17:19:20.063Z,3.00
2022-12-27T17:29:57.421Z,2.53
2022-12-27T17:40:21.076Z,2.57
2022-12-27T17:50:26.417Z,3.00
2022-12-27T18:00:31.569Z,3.23
2022-12-27T18:10:36.518Z,3.33
2022-12-27T18:20:40.472Z,3.80
2022-12-27T18:30:52.466Z,3.30
2022-12-27T18:41:03.414Z,3.37
2022-12-27T18:51:05.570Z,3.50
2022-12-27T19:01:19.498Z,4.70
2022-12-27T19:11:33.099Z,5.10
2022-12-27T19:21:39.466Z,8.83
2022-12-27T19:31:44.884Z,8.63
2022-12-27T19:41:47.763Z,9.87
2022-12-27T19:51:50.353Z,12.40
2022-12-27T20:01:52.569Z,13.57
2022-12-27T20:11:54.658Z,12.97
2022-12-27T20:21:56.285Z,12.13
2022-12-27T20:31:58.598Z,10.13
2022-12-27T20:42:01.259Z,8.40
2022-12-27T20:52:04.234Z,7.90
2022-12-27T21:02:06.027Z,8.57
2022-12-27T21:12:07.922Z,11.33
2022-12-27T21:22:09.730Z,11.07
2022-12-27T21:32:11.413Z,10.67
2022-12-27T21:42:13.065Z,10.20
2022-12-27T21:52:14.829Z,10.47
2022-12-27T22:02:18.494Z,10.13
2022-12-27T22:12:20.672Z,9.87
2022-12-27T22:22:22.405Z,9.20
2022-12-27T22:32:24.043Z,9.60
2022-12-27T22:42:25.698Z,9.10
2022-12-27T22:52:27.337Z,9.20
2022-12-27T23:02:29.136Z,8.43
2022-12-27T23:12:30.900Z,8.80
2022-12-27T23:22:32.536Z,8.90
2022-12-27T23:32:34.285Z,11.23
2022-12-27T23:42:35.933Z,9.50
2022-12-27T23:52:37.562Z,8.93
